Time;durP1;ratioP1;P1;durP2;ratioP2;P2;SDS_P1;SDS_P2;PMS_P1;PMS_P2;Temp;Humidity;BMP_temperature;BMP_pressure;BME280_temperature;BME280_humidity;BME280_pressure;Samples;Min_cycle;Max_cycle;Signal;HPM_P1;HPM_P2
2020/12/26 00:01:46;;;;;;;1.67;1.50;;;;;;;4.55;55.92;96084.31;5069891;28;20205;-75
2020/12/26 00:04:12;;;;;;;1.70;1.60;;;;;;;4.57;55.81;96090.09;5069509;28;20192;-73
2020/12/26 00:06:38;;;;;;;1.50;1.30;;;;;;;4.42;56.81;96092.16;5069658;28;20676;-74
2020/12/26 00:09:04;;;;;;;2.00;1.80;;;;;;;4.31;56.97;96092.22;5069777;28;20221;-72
2020/12/26 00:11:30;;;;;;;3.33;1.60;;;;;;;4.31;57.06;96090.50;5069786;28;20197;-75
2020/12/26 00:13:57;;;;;;;1.93;1.60;;;;;;;4.26;57.51;96099.44;5069428;28;20204;-75
2020/12/26 00:16:23;;;;;;;1.77;1.60;;;;;;;4.33;57.75;96098.00;5069576;28;20738;-75
2020/12/26 00:18:49;;;;;;;1.80;1.70;;;;;;;4.33;58.15;96098.81;5069606;28;20232;-73
2020/12/26 00:21:16;;;;;;;2.37;1.70;;;;;;;4.28;58.34;96089.91;5069261;28;20200;-75
2020/12/26 00:23:43;;;;;;;1.97;1.77;;;;;;;4.32;58.36;96104.03;5069511;28;20197;-76
2020/12/26 00:26:09;;;;;;;1.73;1.63;;;;;;;4.35;59.07;96099.50;5069042;28;20697;-75
2020/12/26 00:28:36;;;;;;;1.90;1.80;;;;;;;4.36;59.31;96105.41;5069747;28;20221;-75
2020/12/26 00:31:03;;;;;;;2.10;1.90;;;;;;;4.36;59.11;96098.56;5069293;28;20197;-75
2020/12/26 00:33:31;;;;;;;2.83;2.10;;;;;;;4.31;60.06;96097.31;5069408;28;20251;-75
2020/12/26 00:35:56;;;;;;;2.47;2.07;;;;;;;4.31;60.99;96089.69;5068938;28;20282;-75
2020/12/26 00:38:22;;;;;;;2.37;2.17;;;;;;;4.30;61.07;96086.31;5068786;28;20311;-76
2020/12/26 00:40:48;;;;;;;2.63;2.40;;;;;;;4.28;60.94;96085.63;5069311;28;20577;-75
2020/12/26 00:43:14;;;;;;;2.80;2.10;;;;;;;4.27;61.34;96089.13;5069458;28;20724;-76
2020/12/26 00:45:40;;;;;;;2.50;2.30;;;;;;;4.33;61.38;96095.47;5068555;28;20216;-75
2020/12/26 00:48:07;;;;;;;2.37;2.17;;;;;;;4.32;61.82;96106.59;5068884;28;20258;-76
2020/12/26 00:50:32;;;;;;;2.73;2.53;;;;;;;4.34;62.07;96110.63;5069038;28;20201;-75
2020/12/26 00:52:58;;;;;;;2.50;2.30;;;;;;;4.38;61.49;96113.75;5068781;28;20203;-76
2020/12/26 00:55:24;;;;;;;2.77;2.57;;;;;;;4.30;61.45;96118.66;5068329;28;20205;-73
2020/12/26 00:57:50;;;;;;;2.50;2.30;;;;;;;4.29;61.67;96111.94;5069170;28;20223;-73
2020/12/26 01:00:16;;;;;;;2.83;2.30;;;;;;;4.31;61.14;96122.81;5068763;28;20878;-75
2020/12/26 01:02:42;;;;;;;2.50;2.20;;;;;;;4.28;60.82;96121.31;5068740;28;20232;-75
2020/12/26 01:05:09;;;;;;;2.47;2.27;;;;;;;4.26;61.16;96132.56;5068349;28;20672;-76
2020/12/26 01:07:35;;;;;;;2.13;2.00;;;;;;;4.14;61.34;96132.63;5068673;28;20220;-76
2020/12/26 01:10:01;;;;;;;2.90;2.20;;;;;;;4.13;60.58;96140.41;5069131;28;20211;-75
2020/12/26 01:12:26;;;;;;;2.40;2.20;;;;;;;4.14;60.69;96135.19;5068799;28;20743;-73
2020/12/26 01:14:52;;;;;;;2.27;2.07;;;;;;;4.13;60.61;96146.31;5067960;28;20201;-74
2020/12/26 01:17:18;;;;;;;1.97;1.87;;;;;;;4.15;59.90;96148.72;5068589;28;20197;-75
2020/12/26 01:19:45;;;;;;;2.17;1.97;;;;;;;4.08;60.98;96145.84;5068063;28;20201;-76
2020/12/26 01:22:14;;;;;;;2.50;1.90;;;;;;;4.10;61.31;96148.28;5068825;28;20208;-78
2020/12/26 01:24:41;;;;;;;2.40;1.93;;;;;;;3.98;61.13;96141.63;5068124;28;20578;-78
2020/12/26 01:27:07;;;;;;;2.53;2.20;;;;;;;3.98;60.88;96142.44;5068480;28;20220;-76
2020/12/26 01:29:34;;;;;;;2.30;2.10;;;;;;;3.92;61.16;96145.47;5068296;28;20836;-78
2020/12/26 01:32:00;;;;;;;3.03;2.30;;;;;;;3.86;61.57;96145.94;5068432;28;20200;-78
2020/12/26 01:34:26;;;;;;;2.90;2.23;;;;;;;3.90;61.52;96147.31;5067925;28;20204;-78
2020/12/26 01:36:53;;;;;;;2.30;2.10;;;;;;;3.87;61.10;96136.56;5068000;28;20200;-75
2020/12/26 01:39:20;;;;;;;2.23;2.03;;;;;;;3.90;61.21;96136.31;5068059;28;20631;-75
2020/12/26 01:41:48;;;;;;;1.97;1.87;;;;;;;3.89;61.58;96147.44;5067786;28;20291;-76
2020/12/26 01:44:14;;;;;;;2.30;2.10;;;;;;;3.89;60.91;96137.25;5067661;28;20288;-73
2020/12/26 01:46:41;;;;;;;2.20;2.00;;;;;;;3.74;61.49;96126.56;5067524;28;20208;-77
2020/12/26 01:49:07;;;;;;;2.40;2.20;;;;;;;3.68;62.28;96127.03;5067950;28;20232;-75
2020/12/26 01:51:33;;;;;;;2.30;2.10;;;;;;;3.66;62.50;96118.69;5067797;28;20554;-76
2020/12/26 01:54:01;;;;;;;2.50;2.30;;;;;;;3.67;62.48;96126.22;5067558;28;20201;-75
2020/12/26 01:56:29;;;;;;;2.33;2.13;;;;;;;3.71;62.31;96124.25;5067681;28;20228;-75
2020/12/26 01:58:55;;;;;;;2.57;2.37;;;;;;;3.77;62.61;96129.66;5067550;28;20216;-75
2020/12/26 02:01:32;;;;;;;2.60;2.40;;;;;;;3.84;62.03;96124.91;5067617;28;20673;-75
2020/12/26 02:03:58;;;;;;;3.00;2.30;;;;;;;3.70;62.69;96125.16;5067413;28;20672;-76
2020/12/26 02:06:24;;;;;;;2.97;2.70;;;;;;;3.42;63.79;96124.81;5066842;28;20244;-73
2020/12/26 02:08:50;;;;;;;3.10;2.80;;;;;;;3.47;63.76;96129.50;5067610;28;20690;-72
2020/12/26 02:11:16;;;;;;;4.60;2.70;;;;;;;3.49;63.50;96140.38;5067395;28;20676;-75
2020/12/26 02:13:43;;;;;;;3.17;2.87;;;;;;;3.45;64.19;96152.56;5067454;28;20235;-73
2020/12/26 02:16:13;;;;;;;3.30;3.00;;;;;;;3.49;64.22;96142.94;5066930;28;20197;-75
2020/12/26 02:18:39;;;;;;;3.20;2.90;;;;;;;3.46;64.60;96138.88;5067934;28;20230;-74
2020/12/26 02:21:05;;;;;;;3.33;3.03;;;;;;;3.54;64.45;96140.03;5067075;28;20704;-76
2020/12/26 02:23:33;;;;;;;3.30;3.00;;;;;;;3.55;64.61;96134.00;5067308;28;20258;-72
2020/12/26 02:26:00;;;;;;;3.30;3.00;;;;;;;3.57;63.87;96139.78;5066912;28;20204;-75
2020/12/26 02:28:26;;;;;;;4.10;3.13;;;;;;;3.54;63.85;96138.28;5067206;28;20220;-73
2020/12/26 02:30:52;;;;;;;3.40;3.10;;;;;;;3.57;64.20;96129.63;5067127;28;20204;-75
2020/12/26 02:33:18;;;;;;;4.23;3.20;;;;;;;3.58;64.30;96131.22;5067265;28;20193;-76
2020/12/26 02:35:45;;;;;;;5.50;3.43;;;;;;;3.64;64.03;96143.50;5066981;28;20197;-73
2020/12/26 02:38:11;;;;;;;4.30;3.43;;;;;;;3.59;64.48;96146.38;5066939;28;20216;-75
2020/12/26 02:40:37;;;;;;;3.50;3.20;;;;;;;3.59;63.88;96151.47;5067105;28;20228;-75
2020/12/26 02:43:06;;;;;;;3.63;3.33;;;;;;;3.55;64.21;96155.19;5066947;28;20201;-73
2020/12/26 02:45:32;;;;;;;3.60;3.30;;;;;;;3.57;64.45;96144.88;5066495;28;20201;-73
2020/12/26 02:47:57;;;;;;;3.97;3.57;;;;;;;3.55;64.22;96150.09;5066957;28;20226;-75
2020/12/26 02:50:23;;;;;;;4.30;3.10;;;;;;;3.55;64.68;96150.09;5066600;28;20198;-76
2020/12/26 02:52:49;;;;;;;3.57;3.20;;;;;;;3.53;64.68;96154.50;5067133;28;20683;-76
2020/12/26 02:55:15;;;;;;;3.30;3.00;;;;;;;3.42;65.23;96151.97;5066148;28;20214;-75
2020/12/26 02:57:41;;;;;;;3.60;3.30;;;;;;;3.44;64.83;96166.22;5067016;28;20212;-72
2020/12/26 03:00:07;;;;;;;3.77;3.40;;;;;;;3.39;65.60;96164.94;5066753;28;20933;-76
2020/12/26 03:02:33;;;;;;;3.80;3.50;;;;;;;3.42;65.50;96167.25;5067194;28;20201;-75
2020/12/26 03:04:59;;;;;;;3.50;3.20;;;;;;;3.45;65.27;96170.38;5066391;28;20205;-75
2020/12/26 03:07:25;;;;;;;3.80;3.40;;;;;;;3.46;65.27;96171.19;5066520;28;20226;-75
2020/12/26 03:09:51;;;;;;;3.67;3.37;;;;;;;3.39;65.79;96168.28;5066744;28;20197;-75
2020/12/26 03:12:17;;;;;;;5.03;3.73;;;;;;;3.36;65.71;96176.16;5066555;28;20772;-74
2020/12/26 03:14:43;;;;;;;3.70;3.40;;;;;;;3.39;65.69;96177.66;5066521;28;20230;-75
2020/12/26 03:17:09;;;;;;;4.33;3.80;;;;;;;3.42;65.15;96179.97;5068677;28;20203;-75
2020/12/26 03:19:35;;;;;;;4.00;3.60;;;;;;;3.43;65.35;96182.41;5070549;28;20712;-75
2020/12/26 03:22:01;;;;;;;3.80;3.50;;;;;;;3.44;64.97;96175.59;5070664;28;20207;-74
2020/12/26 03:24:27;;;;;;;4.67;3.73;;;;;;;3.41;64.97;96189.34;5070161;28;20734;-75
2020/12/26 03:26:53;;;;;;;5.97;3.83;;;;;;;3.37;65.46;96189.69;5070244;28;20212;-73
2020/12/26 03:29:19;;;;;;;4.40;4.00;;;;;;;3.41;65.64;96191.91;5070442;28;20213;-74
2020/12/26 03:31:45;;;;;;;3.87;3.47;;;;;;;3.36;65.96;96195.72;5070653;28;20215;-74
2020/12/26 03:34:11;;;;;;;3.90;3.60;;;;;;;3.40;65.56;96189.47;5070150;28;20205;-74
2020/12/26 03:36:37;;;;;;;3.80;3.40;;;;;;;3.38;65.83;96192.13;5070421;28;20607;-73
2020/12/26 03:39:03;;;;;;;3.50;3.20;;;;;;;3.36;65.78;96191.44;5070007;28;20213;-74
2020/12/26 03:41:29;;;;;;;4.00;3.60;;;;;;;3.37;65.82;96194.78;5070159;28;20200;-76
2020/12/26 03:43:55;;;;;;;3.73;3.43;;;;;;;3.26;66.63;96202.44;5069582;28;20201;-75
2020/12/26 03:46:21;;;;;;;4.40;4.00;;;;;;;3.22;66.39;96204.41;5069918;28;20699;-74
2020/12/26 03:48:46;;;;;;;4.40;3.53;;;;;;;3.23;66.64;96202.66;5070343;28;20228;-75
2020/12/26 03:51:13;;;;;;;4.40;3.93;;;;;;;3.20;66.34;96198.63;5069990;28;20207;-76
2020/12/26 03:53:39;;;;;;;3.70;3.30;;;;;;;3.22;66.16;96199.31;5070019;28;20207;-75
2020/12/26 03:56:05;;;;;;;7.57;4.00;;;;;;;3.22;66.21;96193.41;5069348;28;20209;-75
2020/12/26 03:58:31;;;;;;;4.33;3.70;;;;;;;3.19;66.23;96203.81;5070206;28;20225;-74
2020/12/26 04:00:57;;;;;;;4.07;3.67;;;;;;;3.16;65.84;96199.78;5070037;28;20227;-71
2020/12/26 04:03:23;;;;;;;4.37;3.97;;;;;;;3.16;66.19;96198.97;5069942;28;20680;-73
2020/12/26 04:05:48;;;;;;;4.30;3.90;;;;;;;3.12;66.41;96208.56;5069411;28;20208;-75
2020/12/26 04:08:15;;;;;;;4.40;4.00;;;;;;;3.06;66.63;96214.13;5069471;28;20232;-72
2020/12/26 04:10:41;;;;;;;3.87;3.50;;;;;;;3.08;66.58;96214.78;5069340;28;20197;-75
2020/12/26 04:13:07;;;;;;;3.97;3.57;;;;;;;3.06;66.33;96219.22;5069822;28;20293;-73
2020/12/26 04:15:33;;;;;;;4.30;3.90;;;;;;;3.02;66.75;96215.28;5069558;28;20678;-75
2020/12/26 04:17:59;;;;;;;4.37;3.97;;;;;;;2.97;66.87;96215.59;5069547;28;20224;-73
2020/12/26 04:20:25;;;;;;;5.53;4.27;;;;;;;2.95;67.11;96224.25;5069580;28;20203;-75
2020/12/26 04:22:50;;;;;;;4.27;3.87;;;;;;;2.97;66.93;96228.31;5069502;28;20197;-75
2020/12/26 04:25:18;;;;;;;5.10;4.60;;;;;;;2.97;67.01;96223.22;5068969;28;20574;-75
2020/12/26 04:27:44;;;;;;;5.57;4.97;;;;;;;2.96;67.28;96234.31;5068876;28;20316;-75
2020/12/26 04:30:09;;;;;;;5.73;4.60;;;;;;;2.92;67.28;96243.09;5069303;28;20207;-75
2020/12/26 04:32:35;;;;;;;5.37;4.87;;;;;;;2.88;67.79;96243.47;5069567;28;20855;-75
2020/12/26 04:35:01;;;;;;;5.20;4.70;;;;;;;2.87;68.08;96236.75;5068954;28;20197;-75
2020/12/26 04:37:27;;;;;;;5.97;5.37;;;;;;;2.86;67.65;96230.06;5069195;28;20217;-75
2020/12/26 04:39:53;;;;;;;6.23;5.40;;;;;;;2.81;68.19;96224.47;5068894;28;20193;-74
2020/12/26 04:42:21;;;;;;;7.63;6.13;;;;;;;2.85;67.76;96225.88;5069308;28;20201;-75
2020/12/26 04:44:48;;;;;;;6.40;5.67;;;;;;;2.86;67.86;96232.59;5069024;28;20612;-73
2020/12/26 04:47:15;;;;;;;10.20;6.27;;;;;;;2.85;67.88;96236.06;5068884;28;20228;-73
2020/12/26 04:49:41;;;;;;;7.00;5.73;;;;;;;2.88;67.64;96243.47;5068847;28;20204;-73
2020/12/26 04:52:10;;;;;;;6.80;6.00;;;;;;;2.90;67.93;96247.50;5068810;28;20564;-76
2020/12/26 04:54:41;;;;;;;6.97;5.67;;;;;;;2.89;67.93;96256.03;5068382;28;20354;-75
2020/12/26 04:57:09;;;;;;;6.70;6.00;;;;;;;2.92;67.57;96253.28;5068727;28;20193;-73
2020/12/26 04:59:36;;;;;;;6.97;6.27;;;;;;;2.88;68.02;96264.63;5068587;28;20266;-73
2020/12/26 05:02:04;;;;;;;6.83;5.80;;;;;;;2.87;68.22;96268.09;5068831;28;20201;-75
2020/12/26 05:04:30;;;;;;;6.70;5.87;;;;;;;2.88;68.02;96279.06;5068132;28;20197;-75
2020/12/26 05:06:55;;;;;;;7.37;5.80;;;;;;;2.86;68.16;96273.28;5068493;28;20232;-75
2020/12/26 05:09:22;;;;;;;6.90;6.20;;;;;;;2.85;68.14;96286.91;5068363;28;20217;-75
2020/12/26 05:11:52;;;;;;;7.50;6.17;;;;;;;2.81;68.78;96290.59;5069085;28;20203;-72
2020/12/26 05:14:19;;;;;;;9.73;6.40;;;;;;;2.87;68.39;96297.78;5068334;28;20196;-73
2020/12/26 05:16:46;;;;;;;6.30;5.70;;;;;;;2.89;68.53;96293.38;5068642;28;20204;-75
2020/12/26 05:19:11;;;;;;;5.90;5.30;;;;;;;2.81;68.35;96298.22;5068054;28;20221;-73
2020/12/26 05:21:37;;;;;;;6.40;5.80;;;;;;;2.76;67.98;96294.28;5068173;28;20250;-73
2020/12/26 05:24:08;;;;;;;6.27;5.63;;;;;;;2.72;68.30;96297.97;5067968;28;20242;-75
2020/12/26 05:26:42;;;;;;;7.53;5.73;;;;;;;2.68;68.20;96301.66;5068375;28;20221;-74
2020/12/26 05:29:08;;;;;;;7.20;5.70;;;;;;;2.66;68.81;96292.53;5067777;28;20223;-74
2020/12/26 05:31:49;;;;;;;6.47;5.57;;;;;;;2.62;68.29;96291.94;5067905;28;20246;-75
2020/12/26 05:34:16;;;;;;;5.67;5.07;;;;;;;2.65;68.34;96293.44;5067740;28;20197;-74
2020/12/26 05:36:42;;;;;;;6.00;5.20;;;;;;;2.65;67.96;96301.88;5068101;28;20262;-73
2020/12/26 05:39:13;;;;;;;5.93;5.33;;;;;;;2.67;68.31;96304.31;5067478;28;20250;-73
2020/12/26 05:41:43;;;;;;;7.77;5.40;;;;;;;2.64;67.56;96307.06;5067400;28;20216;-75
2020/12/26 05:44:10;;;;;;;5.20;4.70;;;;;;;2.59;67.53;96304.84;5067733;28;20685;-75
2020/12/26 05:46:36;;;;;;;5.80;4.93;;;;;;;2.56;67.87;96316.97;5067758;28;20221;-72
2020/12/26 05:49:26;;;;;;;6.00;4.87;;;;;;;2.57;67.97;96324.47;5067386;28;20930;-75
2020/12/26 05:51:53;;;;;;;5.80;4.83;;;;;;;2.57;67.43;96329.56;5067824;28;20251;-76
2020/12/26 05:54:19;;;;;;;5.77;4.47;;;;;;;2.55;67.43;96323.78;5067362;28;20204;-73
2020/12/26 05:56:46;;;;;;;4.67;4.27;;;;;;;2.48;67.66;96326.88;5067483;28;20201;-75
2020/12/26 05:59:25;;;;;;;5.30;4.70;;;;;;;2.43;67.95;96330.56;5047665;28;20218;-76
2020/12/26 06:01:51;;;;;;;5.70;4.07;;;;;;;2.42;67.74;96317.94;5057510;28;20196;-75
2020/12/26 06:04:20;;;;;;;4.97;4.47;;;;;;;2.45;67.57;96322.00;5067590;28;20243;-76
2020/12/26 06:06:52;;;;;;;5.27;4.43;;;;;;;2.31;68.07;96330.63;5067609;28;20315;-73
2020/12/26 06:09:20;;;;;;;5.23;4.50;;;;;;;2.33;67.90;96337.19;5067347;28;20787;-73
2020/12/26 06:11:47;;;;;;;5.40;4.90;;;;;;;2.40;68.16;96343.47;5067115;28;20338;-73
2020/12/26 06:14:17;;;;;;;5.43;4.87;;;;;;;2.47;67.51;96338.78;5067540;28;20378;-74
2020/12/26 06:16:48;;;;;;;5.30;4.43;;;;;;;2.50;67.48;96340.28;5067511;28;20188;-75
2020/12/26 06:19:17;;;;;;;6.53;4.50;;;;;;;2.50;67.58;96340.28;5067254;28;20236;-75
2020/12/26 06:21:45;;;;;;;5.07;4.67;;;;;;;2.50;67.80;96340.28;5067154;28;20193;-73
2020/12/26 06:24:13;;;;;;;5.37;4.63;;;;;;;2.46;67.68;96338.88;5066816;28;20744;-75
2020/12/26 06:26:45;;;;;;;5.47;4.43;;;;;;;2.41;67.45;96346.81;5067352;28;20217;-75
2020/12/26 06:29:15;;;;;;;5.10;4.40;;;;;;;2.41;68.03;96350.19;5067124;28;20759;-75
2020/12/26 06:31:43;;;;;;;4.97;4.47;;;;;;;2.40;67.80;96338.38;5067116;28;20197;-75
2020/12/26 06:34:10;;;;;;;6.43;4.83;;;;;;;2.42;67.67;96339.09;5067143;28;20201;-73
2020/12/26 06:36:37;;;;;;;5.10;4.50;;;;;;;2.43;67.65;96339.91;5067101;28;20675;-73
2020/12/26 06:39:31;;;;;;;5.33;4.70;;;;;;;2.39;67.91;96336.75;5067370;28;20286;-75
2020/12/26 06:42:10;;;;;;;6.57;4.60;;;;;;;2.40;67.61;96338.38;5067117;28;20208;-76
2020/12/26 06:44:36;;;;;;;4.97;4.40;;;;;;;2.41;67.79;96341.75;5067125;28;20291;-73
2020/12/26 06:47:02;;;;;;;4.87;4.37;;;;;;;2.42;67.64;96339.09;5066771;28;20232;-76
2020/12/26 06:49:28;;;;;;;5.10;4.60;;;;;;;2.43;67.65;96343.25;5067056;28;20759;-75
2020/12/26 06:51:56;;;;;;;5.10;4.60;;;;;;;2.43;67.69;96347.53;5070723;28;20220;-75
2020/12/26 06:54:40;;;;;;;6.23;4.70;;;;;;;2.41;67.83;96347.63;5073341;28;20203;-75
2020/12/26 06:57:06;;;;;;;5.27;4.40;;;;;;;2.44;67.92;96351.69;5073499;28;20280;-75
2020/12/26 06:59:33;;;;;;;5.50;4.60;;;;;;;2.41;67.49;96350.19;5073425;28;20273;-75
2020/12/26 07:02:09;;;;;;;5.07;4.50;;;;;;;2.39;67.57;96358.81;5073578;28;20288;-76
2020/12/26 07:04:39;;;;;;;5.13;4.63;;;;;;;2.38;67.66;96355.47;5073391;28;20200;-75
2020/12/26 07:07:06;;;;;;;5.53;4.90;;;;;;;2.40;67.54;96366.34;5072980;28;20278;-76
2020/12/26 07:09:47;;;;;;;4.97;4.47;;;;;;;2.41;67.65;96367.16;5073580;28;20212;-75
2020/12/26 07:12:14;;;;;;;4.47;4.07;;;;;;;2.38;67.46;96369.91;5073244;28;20664;-73
2020/12/26 07:14:42;;;;;;;5.53;4.80;;;;;;;2.41;67.46;96378.13;5073207;28;20215;-73
2020/12/26 07:17:26;;;;;;;5.87;5.03;;;;;;;2.43;67.76;96371.22;5073189;28;20193;-75
2020/12/26 07:19:52;;;;;;;6.23;4.27;;;;;;;2.41;67.33;96375.59;5073334;28;20197;-75
2020/12/26 07:22:22;;;;;;;5.50;5.00;;;;;;;2.40;67.67;96384.13;5073102;28;20641;-75
2020/12/26 07:24:50;;;;;;;5.57;5.07;;;;;;;2.43;68.00;96389.00;5073095;28;20253;-76
2020/12/26 07:27:24;;;;;;;7.83;5.00;;;;;;;2.43;68.03;96389.00;5072805;28;20307;-75
2020/12/26 07:29:52;;;;;;;6.67;5.27;;;;;;;2.44;67.92;96392.34;5073674;28;20270;-73
2020/12/26 07:32:42;;;;;;;6.17;5.30;;;;;;;2.39;67.99;96394.41;5073463;28;20201;-76
2020/12/26 07:35:15;;;;;;;6.53;4.67;;;;;;;3.19;100.00;96412.47;5072466;28;20819;-75
2020/12/26 07:37:41;;;;;;;5.63;5.13;;;;;;;3.66;80.33;96407.22;5073089;28;20213;-73
2020/12/26 07:40:08;;;;;;;5.80;4.77;;;;;;;3.61;68.98;96399.16;5072683;28;20246;-73
2020/12/26 07:42:35;;;;;;;6.33;5.43;;;;;;;3.35;67.20;96403.59;5073076;28;20879;-73
2020/12/26 07:45:08;;;;;;;4.93;4.33;;;;;;;3.10;67.36;96408.84;5071683;28;20832;-74
2020/12/26 07:47:39;;;;;;;7.40;5.50;;;;;;;3.00;68.06;96415.50;5072821;28;20220;-74
2020/12/26 07:50:05;;;;;;;5.83;4.87;;;;;;;2.93;67.52;96415.13;5072920;28;20197;-74
2020/12/26 07:52:31;;;;;;;6.03;5.23;;;;;;;2.75;68.00;96412.16;5072794;28;20204;-75
2020/12/26 07:54:58;;;;;;;5.70;4.80;;;;;;;2.80;67.19;96416.13;5071848;28;20859;-75
2020/12/26 07:57:25;;;;;;;6.70;5.60;;;;;;;2.78;67.50;96417.03;5072441;28;20287;-73
2020/12/26 07:59:51;;;;;;;5.10;4.60;;;;;;;2.77;67.35;96425.59;5072636;28;20201;-73
2020/12/26 08:02:17;;;;;;;6.23;5.33;;;;;;;2.75;67.28;96421.50;5072449;28;20277;-76
2020/12/26 08:04:43;;;;;;;5.53;5.03;;;;;;;2.76;67.36;96418.88;5068304;28;20200;-74
2020/12/26 08:07:10;;;;;;;6.27;5.53;;;;;;;2.78;67.33;96422.13;5068821;28;20217;-73
2020/12/26 08:09:37;;;;;;;5.93;5.33;;;;;;;2.78;67.50;96418.75;5069373;28;20204;-74
2020/12/26 08:12:05;;;;;;;6.47;5.60;;;;;;;2.82;67.23;96427.81;5069207;28;20828;-75
2020/12/26 08:14:32;;;;;;;6.30;5.70;;;;;;;2.85;66.95;96421.69;5069065;28;20288;-74
2020/12/26 08:16:58;;;;;;;5.73;5.13;;;;;;;2.71;67.73;96423.47;5069452;28;20200;-76
2020/12/26 08:19:25;;;;;;;6.43;5.50;;;;;;;2.82;67.27;96427.00;5069214;28;20220;-76
2020/12/26 08:21:57;;;;;;;5.80;5.20;;;;;;;2.88;66.31;96426.56;5068988;28;20864;-74
2020/12/26 08:24:23;;;;;;;5.80;5.20;;;;;;;2.91;65.82;96427.13;5069092;28;20197;-75
2020/12/26 08:26:52;;;;;;;6.10;5.40;;;;;;;3.01;65.73;96429.84;5069242;28;20813;-75
2020/12/26 08:29:21;;;;;;;5.27;4.77;;;;;;;2.99;64.97;96418.97;5069269;28;20216;-75
2020/12/26 08:31:50;;;;;;;6.60;5.40;;;;;;;2.96;65.49;96425.09;5069398;28;20204;-75
2020/12/26 08:34:20;;;;;;;5.90;5.30;;;;;;;2.92;65.25;96430.50;5069054;28;20200;-76
2020/12/26 08:36:56;;;;;;;5.77;5.03;;;;;;;3.00;65.24;96433.31;5069243;28;20196;-76
2020/12/26 08:39:24;;;;;;;6.07;4.73;;;;;;;3.09;65.02;96433.47;5068137;28;20274;-73
2020/12/26 08:41:53;;;;;;;9.07;5.07;;;;;;;4.10;100.00;96431.13;5069114;28;20201;-74
2020/12/26 08:44:19;;;;;;;5.03;4.53;;;;;;;4.27;65.01;96423.00;5065982;28;20188;-73
2020/12/26 08:46:49;;;;;;;5.00;4.50;;;;;;;4.07;61.87;96431.34;5068385;28;20201;-74
2020/12/26 08:49:16;;;;;;;5.10;4.33;;;;;;;3.97;61.61;96423.59;5059959;28;20221;-76
2020/12/26 08:51:43;;;;;;;6.60;4.07;;;;;;;3.90;59.91;96430.06;5047546;28;20299;-76
2020/12/26 08:54:17;;;;;;;4.60;4.20;;;;;;;3.86;59.81;96435.50;5053854;28;20197;-76
2020/12/26 08:56:43;;;;;;;4.80;4.20;;;;;;;3.75;59.90;96442.22;5067665;28;20614;-76
2020/12/26 08:59:08;;;;;;;5.13;4.00;;;;;;;3.66;59.43;96444.63;5067881;28;20218;-73
2020/12/26 09:01:35;;;;;;;4.17;3.60;;;;;;;3.50;58.37;96447.47;5065844;28;20284;-74
2020/12/26 09:04:02;;;;;;;4.33;3.93;;;;;;;3.43;58.98;96439.50;5048241;28;20296;-76
2020/12/26 09:06:32;;;;;;;4.50;3.80;;;;;;;3.39;58.88;96439.81;5067547;28;20197;-75
2020/12/26 09:08:58;;;;;;;4.23;3.63;;;;;;;3.29;57.65;96436.31;5067815;28;20216;-74
2020/12/26 09:11:29;;;;;;;4.70;3.63;;;;;;;3.30;59.29;96443.03;5067000;28;20192;-74
2020/12/26 09:13:55;;;;;;;4.53;4.03;;;;;;;3.26;59.91;96442.47;5067122;28;20288;-73
2020/12/26 09:16:21;;;;;;;6.00;4.20;;;;;;;3.93;88.87;96450.22;5067506;28;20197;-74
2020/12/26 09:18:49;;;;;;;4.07;3.53;;;;;;;4.79;67.44;96439.41;5067832;28;20750;-73
2020/12/26 09:21:24;;;;;;;4.53;4.03;;;;;;;4.95;57.89;96427.06;5067122;28;20636;-74
2020/12/26 09:23:52;;;;;;;4.30;3.90;;;;;;;4.75;56.14;96432.91;5067054;28;20207;-74
2020/12/26 09:26:19;;;;;;;4.20;3.80;;;;;;;4.77;56.15;96442.06;5067540;28;20598;-74
2020/12/26 09:29:17;;;;;;;;;;;;;;;;;;;;;
2020/12/26 09:31:43;;;;;;;3.70;3.40;;;;;;;4.91;53.26;96443.53;5047231;28;20174;-74
2020/12/26 09:34:17;;;;;;;4.50;3.53;;;;;;;4.96;54.72;96444.00;5066231;28;20196;-75
2020/12/26 09:36:44;;;;;;;3.80;3.40;;;;;;;5.03;53.93;96437.47;5066655;28;20193;-74
2020/12/26 09:39:10;;;;;;;4.20;3.80;;;;;;;5.15;54.06;96433.94;5057330;28;20214;-74
2020/12/26 09:41:44;;;;;;;3.77;3.30;;;;;;;5.03;52.53;96427.25;5063220;28;20195;-75
2020/12/26 09:44:11;;;;;;;5.47;3.70;;;;;;;5.12;53.19;96429.09;5066301;28;20212;-74
2020/12/26 09:46:36;;;;;;;3.83;3.50;;;;;;;5.12;52.71;96423.97;5066880;28;20203;-75
2020/12/26 09:49:03;;;;;;;4.53;3.67;;;;;;;5.24;52.49;96426.47;5067076;28;20224;-74
2020/12/26 09:51:29;;;;;;;4.47;3.77;;;;;;;5.33;51.73;96418.09;5066251;28;20197;-74
2020/12/26 09:53:55;;;;;;;3.60;3.00;;;;;;;5.37;51.86;96411.81;5066597;28;20205;-74
2020/12/26 09:56:21;;;;;;;3.40;3.10;;;;;;;5.43;50.82;96407.00;5066131;28;20204;-74
2020/12/26 09:58:48;;;;;;;3.60;3.17;;;;;;;5.52;50.66;96410.56;5068250;28;20586;-74
2020/12/26 10:01:15;;;;;;;3.13;2.83;;;;;;;5.33;49.16;96413.81;5066916;28;20208;-77
2020/12/26 10:03:42;;;;;;;3.50;3.20;;;;;;;5.33;50.58;96403.59;5059721;28;20247;-78
2020/12/26 10:06:09;;;;;;;2.50;2.30;;;;;;;5.44;49.96;96398.41;5055377;28;20189;-75
2020/12/26 10:08:35;;;;;;;3.03;2.60;;;;;;;5.42;48.85;96395.16;5066704;28;20260;-75
2020/12/26 10:11:02;;;;;;;2.70;2.50;;;;;;;5.43;48.98;96390.88;5066243;28;20193;-74
2020/12/26 10:13:28;;;;;;;3.90;3.00;;;;;;;5.40;48.93;96378.34;5066372;28;20200;-77
2020/12/26 10:15:54;;;;;;;2.77;2.57;;;;;;;5.42;49.24;96376.47;5066520;28;20726;-76
2020/12/26 10:18:20;;;;;;;3.53;2.33;;;;;;;5.49;49.10;96383.53;5066977;28;20224;-77
2020/12/26 10:20:46;;;;;;;2.90;2.60;;;;;;;5.57;48.08;96389.75;5066106;28;20189;-75
2020/12/26 10:23:12;;;;;;;2.73;2.53;;;;;;;5.52;48.43;96385.03;5066378;28;20201;-77
2020/12/26 10:25:37;;;;;;;2.80;2.37;;;;;;;5.52;48.67;96383.28;5065740;28;20216;-74
2020/12/26 10:28:04;;;;;;;3.17;2.60;;;;;;;5.55;48.77;96377.91;5066131;28;20602;-78
2020/12/26 10:30:30;;;;;;;2.90;2.70;;;;;;;5.57;49.20;96365.03;5066342;28;20644;-73
2020/12/26 10:32:56;;;;;;;3.90;2.70;;;;;;;5.48;49.41;96368.31;5066668;28;20228;-77
2020/12/26 10:35:22;;;;;;;3.90;2.40;;;;;;;5.47;49.57;96366.69;5065729;28;20710;-77
2020/12/26 10:37:48;;;;;;;2.73;2.47;;;;;;;5.51;50.04;96358.66;5065802;28;20213;-77
2020/12/26 10:40:14;;;;;;;2.83;2.40;;;;;;;5.52;49.11;96364.59;5050633;28;20275;-74
2020/12/26 10:42:40;;;;;;;2.73;2.30;;;;;;;5.52;48.63;96359.47;5066224;28;20201;-78
2020/12/26 10:45:07;;;;;;;4.20;2.80;;;;;;;5.56;48.98;96355.75;5066005;28;20204;-73
2020/12/26 10:47:35;;;;;;;5.90;3.03;;;;;;;5.62;49.69;96354.41;5065878;28;20209;-75
2020/12/26 10:50:01;;;;;;;2.27;2.07;;;;;;;5.68;49.27;96357.28;5066262;28;20189;-77
2020/12/26 10:52:27;;;;;;;2.43;1.83;;;;;;;5.54;47.40;96352.50;5066271;28;20203;-78
2020/12/26 10:54:53;;;;;;;2.60;1.80;;;;;;;5.58;46.70;96353.84;5077020;28;20196;-77
2020/12/26 10:57:18;;;;;;;1.70;1.60;;;;;;;5.38;47.42;96354.72;5066182;28;20230;-74
2020/12/26 10:59:44;;;;;;;1.93;1.50;;;;;;;5.52;46.71;96362.03;5065600;28;20704;-77
2020/12/26 11:02:11;;;;;;;2.70;1.63;;;;;;;5.59;46.60;96352.09;5066347;28;20209;-75
2020/12/26 11:04:37;;;;;;;2.20;1.87;;;;;;;5.70;49.30;96357.97;5066128;28;20204;-74
2020/12/26 11:07:04;;;;;;;2.97;1.80;;;;;;;6.20;49.81;96352.91;5066272;28;20607;-79
2020/12/26 11:09:30;;;;;;;2.70;1.60;;;;;;;6.20;47.25;96343.50;5066092;28;20221;-77
2020/12/26 11:11:56;;;;;;;2.00;1.60;;;;;;;6.32;46.35;96351.91;5065992;28;20195;-78
2020/12/26 11:14:22;;;;;;;2.87;1.83;;;;;;;6.45;45.99;96349.88;5066004;28;20201;-73
2020/12/26 11:16:48;;;;;;;2.07;1.70;;;;;;;6.34;44.25;96354.31;5066101;28;20249;-74
2020/12/26 11:19:16;;;;;;;3.27;1.80;;;;;;;6.25;44.84;96358.47;5065705;28;20216;-77
2020/12/26 11:21:42;;;;;;;3.23;2.10;;;;;;;6.07;45.20;96348.06;5065807;28;20608;-74
2020/12/26 11:24:09;;;;;;;2.67;2.00;;;;;;;5.97;45.52;96344.63;5066119;28;20205;-75
2020/12/26 11:26:35;;;;;;;4.00;2.10;;;;;;;6.02;45.37;96337.41;5066071;28;20201;-76
2020/12/26 11:29:01;;;;;;;3.33;2.37;;;;;;;6.00;46.33;96338.47;5066108;28;20659;-74
2020/12/26 11:31:27;;;;;;;2.93;2.17;;;;;;;5.93;46.33;96339.94;5065892;28;20208;-77
2020/12/26 11:33:54;;;;;;;4.00;2.10;;;;;;;5.76;47.47;96336.22;5070759;28;20192;-76
2020/12/26 11:36:22;;;;;;;4.60;2.33;;;;;;;5.74;48.02;96335.53;5066724;28;20596;-74
2020/12/26 11:38:48;;;;;;;3.63;2.20;;;;;;;5.86;47.14;96330.19;5060630;28;20259;-78
2020/12/26 11:41:16;;;;;;;3.00;2.13;;;;;;;5.92;47.61;96325.53;5060291;28;20185;-75
2020/12/26 11:43:42;;;;;;;3.03;2.10;;;;;;;5.78;47.34;96324.91;5053743;28;20607;-73
2020/12/26 11:46:08;;;;;;;3.20;2.17;;;;;;;5.68;46.72;96320.69;5051879;28;20201;-73